sensor_id;sensor_type;location;lat;lon;timestamp;P1;durP1;ratioP1;P2;durP2;ratioP2
42140;SDS011;27809;51.864;5.646;2022-07-30T00:01:14;7.53;;;3.17;;
42140;SDS011;27809;51.864;5.646;2022-07-30T00:03:39;10.23;;;3.72;;
42140;SDS011;27809;51.864;5.646;2022-07-30T00:06:05;11.63;;;4.18;;
42140;SDS011;27809;51.864;5.646;2022-07-30T00:08:30;8.40;;;3.95;;
42140;SDS011;27809;51.864;5.646;2022-07-30T00:10:56;13.15;;;4.47;;
42140;SDS011;27809;51.864;5.646;2022-07-30T00:13:21;7.38;;;4.57;;
42140;SDS011;27809;51.864;5.646;2022-07-30T00:15:47;10.23;;;3.45;;
42140;SDS011;27809;51.864;5.646;2022-07-30T00:18:12;8.45;;;3.90;;
42140;SDS011;27809;51.864;5.646;2022-07-30T00:20:39;6.72;;;3.30;;
42140;SDS011;27809;51.864;5.646;2022-07-30T00:23:05;11.40;;;4.13;;
42140;SDS011;27809;51.864;5.646;2022-07-30T00:25:31;6.38;;;3.38;;
42140;SDS011;27809;51.864;5.646;2022-07-30T00:27:57;6.60;;;3.38;;
42140;SDS011;27809;51.864;5.646;2022-07-30T00:30:23;9.10;;;4.22;;
42140;SDS011;27809;51.864;5.646;2022-07-30T00:32:48;8.10;;;4.40;;
42140;SDS011;27809;51.864;5.646;2022-07-30T00:35:14;8.73;;;4.82;;
42140;SDS011;27809;51.864;5.646;2022-07-30T00:37:40;9.75;;;4.10;;
42140;SDS011;27809;51.864;5.646;2022-07-30T00:40:06;10.85;;;3.75;;
42140;SDS011;27809;51.864;5.646;2022-07-30T00:42:39;7.60;;;4.15;;
42140;SDS011;27809;51.864;5.646;2022-07-30T00:45:07;9.70;;;3.30;;
42140;SDS011;27809;51.864;5.646;2022-07-30T00:47:34;9.43;;;3.92;;
42140;SDS011;27809;51.864;5.646;2022-07-30T00:50:00;15.00;;;4.75;;
42140;SDS011;27809;51.864;5.646;2022-07-30T00:52:28;10.27;;;3.78;;
42140;SDS011;27809;51.864;5.646;2022-07-30T00:54:56;19.55;;;4.32;;
42140;SDS011;27809;51.864;5.646;2022-07-30T00:57:21;7.95;;;2.72;;
42140;SDS011;27809;51.864;5.646;2022-07-30T00:59:47;6.38;;;3.53;;
42140;SDS011;27809;51.864;5.646;2022-07-30T01:02:12;9.20;;;3.60;;
42140;SDS011;27809;51.864;5.646;2022-07-30T01:04:38;8.73;;;3.40;;
42140;SDS011;27809;51.864;5.646;2022-07-30T01:07:03;10.18;;;3.05;;
42140;SDS011;27809;51.864;5.646;2022-07-30T01:09:29;6.28;;;2.58;;
42140;SDS011;27809;51.864;5.646;2022-07-30T01:11:55;8.18;;;2.97;;
42140;SDS011;27809;51.864;5.646;2022-07-30T01:14:20;6.72;;;3.08;;
42140;SDS011;27809;51.864;5.646;2022-07-30T01:16:46;10.00;;;3.67;;
42140;SDS011;27809;51.864;5.646;2022-07-30T01:19:19;8.10;;;3.00;;
42140;SDS011;27809;51.864;5.646;2022-07-30T01:27:42;13.65;;;4.15;;
42140;SDS011;27809;51.864;5.646;2022-07-30T01:30:37;9.05;;;3.45;;
42140;SDS011;27809;51.864;5.646;2022-07-30T01:33:05;14.27;;;3.67;;
42140;SDS011;27809;51.864;5.646;2022-07-30T01:35:35;7.35;;;2.63;;
42140;SDS011;27809;51.864;5.646;2022-07-30T01:38:02;13.23;;;3.40;;
42140;SDS011;27809;51.864;5.646;2022-07-30T01:40:29;8.00;;;3.70;;
42140;SDS011;27809;51.864;5.646;2022-07-30T01:42:56;13.00;;;4.15;;
42140;SDS011;27809;51.864;5.646;2022-07-30T01:45:23;11.23;;;4.05;;
42140;SDS011;27809;51.864;5.646;2022-07-30T01:47:51;11.07;;;3.53;;
42140;SDS011;27809;51.864;5.646;2022-07-30T01:50:18;9.20;;;2.97;;
42140;SDS011;27809;51.864;5.646;2022-07-30T01:52:45;5.97;;;3.45;;
42140;SDS011;27809;51.864;5.646;2022-07-30T01:55:13;11.30;;;2.78;;
42140;SDS011;27809;51.864;5.646;2022-07-30T01:57:41;5.10;;;3.05;;
42140;SDS011;27809;51.864;5.646;2022-07-30T02:00:09;11.07;;;4.00;;
42140;SDS011;27809;51.864;5.646;2022-07-30T02:02:35;9.70;;;3.67;;
42140;SDS011;27809;51.864;5.646;2022-07-30T02:05:03;8.63;;;3.53;;
42140;SDS011;27809;51.864;5.646;2022-07-30T02:07:37;10.70;;;3.75;;
42140;SDS011;27809;51.864;5.646;2022-07-30T02:10:34;13.43;;;3.33;;
42140;SDS011;27809;51.864;5.646;2022-07-30T02:13:05;9.15;;;2.88;;
42140;SDS011;27809;51.864;5.646;2022-07-30T02:15:46;10.32;;;2.95;;
42140;SDS011;27809;51.864;5.646;2022-07-30T02:18:23;13.80;;;4.72;;
42140;SDS011;27809;51.864;5.646;2022-07-30T02:20:57;6.78;;;3.25;;
42140;SDS011;27809;51.864;5.646;2022-07-30T02:23:27;4.68;;;2.92;;
42140;SDS011;27809;51.864;5.646;2022-07-30T02:25:54;13.35;;;5.03;;
42140;SDS011;27809;51.864;5.646;2022-07-30T02:28:23;6.47;;;3.42;;
42140;SDS011;27809;51.864;5.646;2022-07-30T02:30:51;7.85;;;2.88;;
42140;SDS011;27809;51.864;5.646;2022-07-30T02:33:22;8.95;;;3.08;;
42140;SDS011;27809;51.864;5.646;2022-07-30T02:35:51;10.23;;;3.67;;
42140;SDS011;27809;51.864;5.646;2022-07-30T02:38:18;5.50;;;2.78;;
42140;SDS011;27809;51.864;5.646;2022-07-30T02:40:44;7.13;;;3.03;;
42140;SDS011;27809;51.864;5.646;2022-07-30T02:43:13;9.40;;;3.42;;
42140;SDS011;27809;51.864;5.646;2022-07-30T02:45:40;10.82;;;2.40;;
42140;SDS011;27809;51.864;5.646;2022-07-30T02:48:08;8.20;;;3.55;;
42140;SDS011;27809;51.864;5.646;2022-07-30T02:50:35;8.93;;;3.30;;
42140;SDS011;27809;51.864;5.646;2022-07-30T02:53:03;7.05;;;3.33;;
42140;SDS011;27809;51.864;5.646;2022-07-30T02:55:32;7.97;;;2.88;;
42140;SDS011;27809;51.864;5.646;2022-07-30T02:57:59;11.38;;;3.70;;
42140;SDS011;27809;51.864;5.646;2022-07-30T03:00:26;8.05;;;4.00;;
42140;SDS011;27809;51.864;5.646;2022-07-30T03:02:54;5.05;;;3.67;;
42140;SDS011;27809;51.864;5.646;2022-07-30T03:05:21;6.25;;;3.67;;
42140;SDS011;27809;51.864;5.646;2022-07-30T03:07:47;7.95;;;4.18;;
42140;SDS011;27809;51.864;5.646;2022-07-30T03:10:13;9.25;;;4.68;;
42140;SDS011;27809;51.864;5.646;2022-07-30T03:12:40;10.45;;;4.38;;
42140;SDS011;27809;51.864;5.646;2022-07-30T03:15:09;14.38;;;4.85;;
42140;SDS011;27809;51.864;5.646;2022-07-30T03:17:43;11.05;;;5.30;;
42140;SDS011;27809;51.864;5.646;2022-07-30T03:20:11;16.33;;;5.35;;
42140;SDS011;27809;51.864;5.646;2022-07-30T03:22:40;7.95;;;4.70;;
42140;SDS011;27809;51.864;5.646;2022-07-30T03:25:08;14.45;;;4.57;;
42140;SDS011;27809;51.864;5.646;2022-07-30T03:27:35;14.88;;;5.43;;
42140;SDS011;27809;51.864;5.646;2022-07-30T03:30:02;8.27;;;4.13;;
42140;SDS011;27809;51.864;5.646;2022-07-30T03:32:29;11.20;;;5.53;;
42140;SDS011;27809;51.864;5.646;2022-07-30T03:34:55;10.63;;;5.00;;
42140;SDS011;27809;51.864;5.646;2022-07-30T03:37:22;8.60;;;4.07;;
42140;SDS011;27809;51.864;5.646;2022-07-30T03:39:49;16.50;;;5.35;;
42140;SDS011;27809;51.864;5.646;2022-07-30T03:42:15;8.60;;;5.05;;
42140;SDS011;27809;51.864;5.646;2022-07-30T03:44:40;9.68;;;4.40;;
42140;SDS011;27809;51.864;5.646;2022-07-30T03:47:09;23.77;;;5.70;;
42140;SDS011;27809;51.864;5.646;2022-07-30T03:49:36;9.38;;;4.70;;
42140;SDS011;27809;51.864;5.646;2022-07-30T03:52:02;9.77;;;5.65;;
42140;SDS011;27809;51.864;5.646;2022-07-30T03:54:29;8.57;;;4.65;;
42140;SDS011;27809;51.864;5.646;2022-07-30T03:56:58;6.85;;;5.10;;
42140;SDS011;27809;51.864;5.646;2022-07-30T03:59:24;12.05;;;6.53;;
42140;SDS011;27809;51.864;5.646;2022-07-30T04:01:50;11.70;;;5.57;;
42140;SDS011;27809;51.864;5.646;2022-07-30T04:04:16;16.98;;;6.95;;
42140;SDS011;27809;51.864;5.646;2022-07-30T04:06:41;10.02;;;5.45;;
42140;SDS011;27809;51.864;5.646;2022-07-30T04:09:08;10.40;;;5.43;;
42140;SDS011;27809;51.864;5.646;2022-07-30T04:11:35;12.35;;;5.95;;
42140;SDS011;27809;51.864;5.646;2022-07-30T04:14:00;9.88;;;5.10;;
42140;SDS011;27809;51.864;5.646;2022-07-30T04:16:34;11.00;;;5.80;;
42140;SDS011;27809;51.864;5.646;2022-07-30T04:19:13;14.88;;;6.47;;
42140;SDS011;27809;51.864;5.646;2022-07-30T04:22:00;14.50;;;5.72;;
42140;SDS011;27809;51.864;5.646;2022-07-30T04:24:26;11.57;;;7.43;;
42140;SDS011;27809;51.864;5.646;2022-07-30T04:26:53;9.23;;;6.10;;
42140;SDS011;27809;51.864;5.646;2022-07-30T04:29:20;13.43;;;6.55;;
42140;SDS011;27809;51.864;5.646;2022-07-30T04:31:46;12.98;;;7.22;;
42140;SDS011;27809;51.864;5.646;2022-07-30T04:34:14;9.88;;;6.45;;
42140;SDS011;27809;51.864;5.646;2022-07-30T04:36:40;13.27;;;6.00;;
42140;SDS011;27809;51.864;5.646;2022-07-30T04:39:07;9.65;;;5.95;;
42140;SDS011;27809;51.864;5.646;2022-07-30T04:41:32;11.15;;;6.47;;
42140;SDS011;27809;51.864;5.646;2022-07-30T04:43:58;12.02;;;6.32;;
42140;SDS011;27809;51.864;5.646;2022-07-30T04:46:23;10.20;;;6.03;;
42140;SDS011;27809;51.864;5.646;2022-07-30T04:48:49;11.27;;;6.00;;
42140;SDS011;27809;51.864;5.646;2022-07-30T04:51:23;13.98;;;7.30;;
42140;SDS011;27809;51.864;5.646;2022-07-30T04:53:51;9.88;;;5.30;;
42140;SDS011;27809;51.864;5.646;2022-07-30T04:56:18;13.88;;;6.47;;
42140;SDS011;27809;51.864;5.646;2022-07-30T04:58:45;12.90;;;6.53;;
42140;SDS011;27809;51.864;5.646;2022-07-30T05:01:14;12.75;;;7.15;;
42140;SDS011;27809;51.864;5.646;2022-07-30T05:03:43;14.23;;;7.57;;
42140;SDS011;27809;51.864;5.646;2022-07-30T05:06:10;14.13;;;7.57;;
42140;SDS011;27809;51.864;5.646;2022-07-30T05:08:36;12.02;;;6.88;;
42140;SDS011;27809;51.864;5.646;2022-07-30T05:11:03;11.68;;;6.45;;
42140;SDS011;27809;51.864;5.646;2022-07-30T05:13:28;11.38;;;7.30;;
42140;SDS011;27809;51.864;5.646;2022-07-30T05:15:54;14.63;;;8.75;;
42140;SDS011;27809;51.864;5.646;2022-07-30T05:18:19;10.00;;;7.47;;
42140;SDS011;27809;51.864;5.646;2022-07-30T05:20:45;13.32;;;7.95;;
42140;SDS011;27809;51.864;5.646;2022-07-30T05:23:10;13.77;;;9.77;;
42140;SDS011;27809;51.864;5.646;2022-07-30T05:25:36;18.13;;;10.50;;
42140;SDS011;27809;51.864;5.646;2022-07-30T05:28:02;20.70;;;10.27;;
42140;SDS011;27809;51.864;5.646;2022-07-30T05:30:27;18.83;;;9.68;;
42140;SDS011;27809;51.864;5.646;2022-07-30T05:32:53;43.97;;;13.00;;
42140;SDS011;27809;51.864;5.646;2022-07-30T05:35:18;14.32;;;9.48;;
42140;SDS011;27809;51.864;5.646;2022-07-30T05:37:44;14.65;;;9.15;;
42140;SDS011;27809;51.864;5.646;2022-07-30T05:40:10;14.82;;;10.77;;
42140;SDS011;27809;51.864;5.646;2022-07-30T05:42:36;17.73;;;9.95;;
42140;SDS011;27809;51.864;5.646;2022-07-30T05:45:01;13.80;;;8.90;;
42140;SDS011;27809;51.864;5.646;2022-07-30T05:47:27;17.15;;;10.38;;
42140;SDS011;27809;51.864;5.646;2022-07-30T05:49:53;16.42;;;11.93;;
42140;SDS011;27809;51.864;5.646;2022-07-30T05:52:18;14.38;;;10.38;;
42140;SDS011;27809;51.864;5.646;2022-07-30T05:54:44;19.00;;;10.30;;
42140;SDS011;27809;51.864;5.646;2022-07-30T05:57:09;23.83;;;12.43;;
42140;SDS011;27809;51.864;5.646;2022-07-30T05:59:35;14.00;;;9.48;;
42140;SDS011;27809;51.864;5.646;2022-07-30T06:02:00;18.50;;;10.63;;
42140;SDS011;27809;51.864;5.646;2022-07-30T06:04:27;14.65;;;10.63;;
42140;SDS011;27809;51.864;5.646;2022-07-30T06:06:53;2.40;;;0.57;;
42140;SDS011;27809;51.864;5.646;2022-07-30T06:09:18;19.50;;;9.77;;
42140;SDS011;27809;51.864;5.646;2022-07-30T06:11:44;19.92;;;10.90;;
42140;SDS011;27809;51.864;5.646;2022-07-30T06:14:10;18.50;;;10.85;;
42140;SDS011;27809;51.864;5.646;2022-07-30T06:16:35;18.75;;;9.65;;
42140;SDS011;27809;51.864;5.646;2022-07-30T06:19:01;15.73;;;10.38;;
42140;SDS011;27809;51.864;5.646;2022-07-30T06:21:26;18.88;;;11.80;;
42140;SDS011;27809;51.864;5.646;2022-07-30T06:23:52;16.98;;;10.63;;
42140;SDS011;27809;51.864;5.646;2022-07-30T06:26:17;18.20;;;8.98;;
42140;SDS011;27809;51.864;5.646;2022-07-30T06:28:43;24.15;;;9.88;;
42140;SDS011;27809;51.864;5.646;2022-07-30T06:31:08;15.05;;;9.32;;
42140;SDS011;27809;51.864;5.646;2022-07-30T06:33:34;11.98;;;8.25;;
42140;SDS011;27809;51.864;5.646;2022-07-30T06:35:59;13.85;;;7.78;;
42140;SDS011;27809;51.864;5.646;2022-07-30T06:38:25;10.38;;;7.68;;
42140;SDS011;27809;51.864;5.646;2022-07-30T06:40:50;11.68;;;5.53;;
42140;SDS011;27809;51.864;5.646;2022-07-30T06:43:16;7.75;;;5.25;;
42140;SDS011;27809;51.864;5.646;2022-07-30T06:45:43;8.50;;;5.20;;
42140;SDS011;27809;51.864;5.646;2022-07-30T06:48:08;8.02;;;4.88;;
42140;SDS011;27809;51.864;5.646;2022-07-30T06:50:34;9.63;;;4.93;;
42140;SDS011;27809;51.864;5.646;2022-07-30T06:53:01;12.32;;;5.68;;
42140;SDS011;27809;51.864;5.646;2022-07-30T06:55:26;9.10;;;3.78;;
42140;SDS011;27809;51.864;5.646;2022-07-30T06:57:52;15.68;;;5.25;;
42140;SDS011;27809;51.864;5.646;2022-07-30T07:00:17;5.75;;;3.42;;
42140;SDS011;27809;51.864;5.646;2022-07-30T07:02:43;8.30;;;2.80;;
42140;SDS011;27809;51.864;5.646;2022-07-30T07:05:09;8.13;;;2.55;;
42140;SDS011;27809;51.864;5.646;2022-07-30T07:07:35;6.32;;;3.60;;
42140;SDS011;27809;51.864;5.646;2022-07-30T07:10:00;6.53;;;2.63;;
42140;SDS011;27809;51.864;5.646;2022-07-30T07:12:26;3.15;;;1.77;;
42140;SDS011;27809;51.864;5.646;2022-07-30T07:14:52;5.25;;;1.50;;
42140;SDS011;27809;51.864;5.646;2022-07-30T07:17:17;5.25;;;2.63;;
42140;SDS011;27809;51.864;5.646;2022-07-30T07:19:43;1.20;;;0.80;;
42140;SDS011;27809;51.864;5.646;2022-07-30T07:22:08;4.18;;;0.90;;
42140;SDS011;27809;51.864;5.646;2022-07-30T07:24:34;2.92;;;1.77;;
42140;SDS011;27809;51.864;5.646;2022-07-30T07:26:59;5.57;;;1.85;;
42140;SDS011;27809;51.864;5.646;2022-07-30T07:29:25;3.28;;;1.00;;
42140;SDS011;27809;51.864;5.646;2022-07-30T07:31:50;2.55;;;0.93;;
42140;SDS011;27809;51.864;5.646;2022-07-30T07:34:16;4.70;;;1.35;;
42140;SDS011;27809;51.864;5.646;2022-07-30T07:36:41;3.60;;;1.00;;
42140;SDS011;27809;51.864;5.646;2022-07-30T07:39:07;4.15;;;1.48;;
42140;SDS011;27809;51.864;5.646;2022-07-30T07:41:34;2.72;;;0.90;;
42140;SDS011;27809;51.864;5.646;2022-07-30T07:44:00;3.17;;;1.30;;
42140;SDS011;27809;51.864;5.646;2022-07-30T07:46:26;4.60;;;1.17;;
42140;SDS011;27809;51.864;5.646;2022-07-30T07:48:52;5.70;;;0.95;;
42140;SDS011;27809;51.864;5.646;2022-07-30T07:51:17;4.55;;;1.02;;
42140;SDS011;27809;51.864;5.646;2022-07-30T07:53:44;3.03;;;0.63;;
42140;SDS011;27809;51.864;5.646;2022-07-30T07:56:10;5.90;;;0.90;;
42140;SDS011;27809;51.864;5.646;2022-07-30T07:58:36;4.85;;;0.90;;
42140;SDS011;27809;51.864;5.646;2022-07-30T08:01:01;5.15;;;1.20;;
42140;SDS011;27809;51.864;5.646;2022-07-30T08:03:27;2.78;;;1.13;;
42140;SDS011;27809;51.864;5.646;2022-07-30T08:05:53;4.60;;;1.70;;
42140;SDS011;27809;51.864;5.646;2022-07-30T08:08:18;4.85;;;1.23;;
42140;SDS011;27809;51.864;5.646;2022-07-30T08:10:44;6.35;;;1.42;;
42140;SDS011;27809;51.864;5.646;2022-07-30T08:13:09;4.65;;;0.88;;
42140;SDS011;27809;51.864;5.646;2022-07-30T08:15:35;0.80;;;0.50;;
42140;SDS011;27809;51.864;5.646;2022-07-30T08:18:00;7.13;;;1.80;;
42140;SDS011;27809;51.864;5.646;2022-07-30T08:20:26;4.97;;;1.50;;
42140;SDS011;27809;51.864;5.646;2022-07-30T08:22:51;4.15;;;1.17;;
42140;SDS011;27809;51.864;5.646;2022-07-30T08:25:17;9.10;;;2.25;;
42140;SDS011;27809;51.864;5.646;2022-07-30T08:27:43;3.40;;;1.08;;
42140;SDS011;27809;51.864;5.646;2022-07-30T08:30:09;4.03;;;1.45;;
42140;SDS011;27809;51.864;5.646;2022-07-30T08:32:35;6.70;;;2.70;;
42140;SDS011;27809;51.864;5.646;2022-07-30T08:35:01;3.47;;;1.50;;
42140;SDS011;27809;51.864;5.646;2022-07-30T08:37:27;4.25;;;1.52;;
42140;SDS011;27809;51.864;5.646;2022-07-30T08:39:53;10.90;;;1.85;;
42140;SDS011;27809;51.864;5.646;2022-07-30T08:42:19;6.07;;;1.75;;
42140;SDS011;27809;51.864;5.646;2022-07-30T08:44:46;5.65;;;1.55;;
42140;SDS011;27809;51.864;5.646;2022-07-30T08:47:15;4.38;;;1.48;;
42140;SDS011;27809;51.864;5.646;2022-07-30T08:49:42;4.03;;;1.70;;
42140;SDS011;27809;51.864;5.646;2022-07-30T08:52:09;4.63;;;1.20;;
42140;SDS011;27809;51.864;5.646;2022-07-30T08:54:35;8.30;;;1.95;;
42140;SDS011;27809;51.864;5.646;2022-07-30T08:57:02;4.70;;;2.65;;
42140;SDS011;27809;51.864;5.646;2022-07-30T08:59:28;5.15;;;1.77;;
42140;SDS011;27809;51.864;5.646;2022-07-30T09:01:56;4.35;;;1.50;;
42140;SDS011;27809;51.864;5.646;2022-07-30T09:04:22;3.40;;;2.05;;
42140;SDS011;27809;51.864;5.646;2022-07-30T09:06:48;4.22;;;1.17;;
42140;SDS011;27809;51.864;5.646;2022-07-30T09:09:14;6.72;;;1.83;;
42140;SDS011;27809;51.864;5.646;2022-07-30T09:11:40;6.90;;;1.35;;
42140;SDS011;27809;51.864;5.646;2022-07-30T09:14:09;4.75;;;1.20;;
42140;SDS011;27809;51.864;5.646;2022-07-30T09:16:36;4.60;;;1.40;;
42140;SDS011;27809;51.864;5.646;2022-07-30T09:19:15;2.95;;;1.40;;
42140;SDS011;27809;51.864;5.646;2022-07-30T09:24:24;2.17;;;0.77;;
42140;SDS011;27809;51.864;5.646;2022-07-30T09:26:51;5.40;;;1.20;;
42140;SDS011;27809;51.864;5.646;2022-07-30T09:29:27;2.97;;;1.23;;
42140;SDS011;27809;51.864;5.646;2022-07-30T09:31:54;17.45;;;1.20;;
42140;SDS011;27809;51.864;5.646;2022-07-30T09:34:31;5.57;;;0.98;;
42140;SDS011;27809;51.864;5.646;2022-07-30T09:37:00;5.68;;;0.90;;
42140;SDS011;27809;51.864;5.646;2022-07-30T09:39:41;3.95;;;1.17;;
42140;SDS011;27809;51.864;5.646;2022-07-30T09:42:20;2.60;;;0.70;;
42140;SDS011;27809;51.864;5.646;2022-07-30T09:44:47;3.17;;;1.15;;
42140;SDS011;27809;51.864;5.646;2022-07-30T09:47:28;3.65;;;1.05;;
42140;SDS011;27809;51.864;5.646;2022-07-30T09:50:08;3.88;;;0.88;;
42140;SDS011;27809;51.864;5.646;2022-07-30T09:52:35;3.05;;;0.60;;
42140;SDS011;27809;51.864;5.646;2022-07-30T09:55:02;1.83;;;0.47;;
42140;SDS011;27809;51.864;5.646;2022-07-30T09:57:28;7.65;;;0.82;;
42140;SDS011;27809;51.864;5.646;2022-07-30T09:59:57;7.40;;;1.10;;
42140;SDS011;27809;51.864;5.646;2022-07-30T10:02:40;3.58;;;0.47;;
42140;SDS011;27809;51.864;5.646;2022-07-30T10:05:07;3.92;;;0.80;;
42140;SDS011;27809;51.864;5.646;2022-07-30T10:07:36;2.83;;;0.30;;
42140;SDS011;27809;51.864;5.646;2022-07-30T10:10:02;3.13;;;0.50;;
42140;SDS011;27809;51.864;5.646;2022-07-30T10:12:28;1.95;;;0.60;;
42140;SDS011;27809;51.864;5.646;2022-07-30T10:14:56;3.22;;;0.50;;
42140;SDS011;27809;51.864;5.646;2022-07-30T10:17:26;2.60;;;0.32;;
42140;SDS011;27809;51.864;5.646;2022-07-30T10:19:52;2.63;;;0.60;;
42140;SDS011;27809;51.864;5.646;2022-07-30T10:22:18;1.13;;;0.40;;
42140;SDS011;27809;51.864;5.646;2022-07-30T10:24:44;3.53;;;0.60;;
42140;SDS011;27809;51.864;5.646;2022-07-30T10:27:11;0.95;;;0.30;;
42140;SDS011;27809;51.864;5.646;2022-07-30T10:29:37;1.60;;;0.55;;
42140;SDS011;27809;51.864;5.646;2022-07-30T10:32:03;1.73;;;0.20;;
42140;SDS011;27809;51.864;5.646;2022-07-30T10:34:30;1.67;;;0.60;;
42140;SDS011;27809;51.864;5.646;2022-07-30T10:36:58;3.33;;;0.43;;
42140;SDS011;27809;51.864;5.646;2022-07-30T10:39:28;6.38;;;0.40;;
42140;SDS011;27809;51.864;5.646;2022-07-30T10:45:10;1.08;;;0.30;;
42140;SDS011;27809;51.864;5.646;2022-07-30T10:47:52;2.72;;;0.63;;
42140;SDS011;27809;51.864;5.646;2022-07-30T10:50:20;1.02;;;0.35;;
42140;SDS011;27809;51.864;5.646;2022-07-30T10:52:57;1.50;;;0.45;;
42140;SDS011;27809;51.864;5.646;2022-07-30T10:55:26;2.20;;;0.45;;
42140;SDS011;27809;51.864;5.646;2022-07-30T10:58:10;1.13;;;0.30;;
42140;SDS011;27809;51.864;5.646;2022-07-30T11:00:56;1.65;;;0.30;;
42140;SDS011;27809;51.864;5.646;2022-07-30T11:03:23;1.23;;;0.20;;
42140;SDS011;27809;51.864;5.646;2022-07-30T11:05:51;6.57;;;0.35;;
42140;SDS011;27809;51.864;5.646;2022-07-30T11:11:04;2.42;;;0.30;;
42140;SDS011;27809;51.864;5.646;2022-07-30T11:13:58;1.13;;;0.20;;
42140;SDS011;27809;51.864;5.646;2022-07-30T11:21:41;1.92;;;0.30;;
42140;SDS011;27809;51.864;5.646;2022-07-30T11:27:19;2.10;;;0.40;;
42140;SDS011;27809;51.864;5.646;2022-07-30T11:30:29;1.00;;;0.30;;
42140;SDS011;27809;51.864;5.646;2022-07-30T11:38:08;2.78;;;0.50;;
42140;SDS011;27809;51.864;5.646;2022-07-30T11:40:37;4.82;;;0.30;;
42140;SDS011;27809;51.864;5.646;2022-07-30T11:43:27;1.27;;;0.63;;
42140;SDS011;27809;51.864;5.646;2022-07-30T11:46:15;6.53;;;0.30;;
42140;SDS011;27809;51.864;5.646;2022-07-30T11:48:56;1.58;;;0.68;;
42140;SDS011;27809;51.864;5.646;2022-07-30T11:51:23;1.50;;;0.30;;
42140;SDS011;27809;51.864;5.646;2022-07-30T11:54:03;0.65;;;0.30;;
42140;SDS011;27809;51.864;5.646;2022-07-30T11:56:30;2.83;;;0.20;;
42140;SDS011;27809;51.864;5.646;2022-07-30T11:59:08;1.58;;;0.32;;
42140;SDS011;27809;51.864;5.646;2022-07-30T12:01:34;2.17;;;0.30;;
42140;SDS011;27809;51.864;5.646;2022-07-30T12:04:03;2.13;;;0.28;;
42140;SDS011;27809;51.864;5.646;2022-07-30T12:06:29;6.75;;;0.30;;
42140;SDS011;27809;51.864;5.646;2022-07-30T12:08:56;1.02;;;0.40;;
42140;SDS011;27809;51.864;5.646;2022-07-30T12:11:22;1.23;;;0.30;;
42140;SDS011;27809;51.864;5.646;2022-07-30T12:13:55;3.45;;;0.40;;
42140;SDS011;27809;51.864;5.646;2022-07-30T12:16:23;1.38;;;0.30;;
42140;SDS011;27809;51.864;5.646;2022-07-30T12:18:49;1.05;;;0.20;;
42140;SDS011;27809;51.864;5.646;2022-07-30T12:21:15;4.93;;;0.68;;
42140;SDS011;27809;51.864;5.646;2022-07-30T12:23:42;1.00;;;0.17;;
42140;SDS011;27809;51.864;5.646;2022-07-30T12:26:24;9.05;;;1.00;;
42140;SDS011;27809;51.864;5.646;2022-07-30T12:28:51;6.80;;;0.30;;
42140;SDS011;27809;51.864;5.646;2022-07-30T12:31:17;1.30;;;0.30;;
42140;SDS011;27809;51.864;5.646;2022-07-30T12:33:43;0.88;;;0.20;;
42140;SDS011;27809;51.864;5.646;2022-07-30T12:36:08;1.65;;;0.30;;
42140;SDS011;27809;51.864;5.646;2022-07-30T12:38:47;0.80;;;0.20;;
42140;SDS011;27809;51.864;5.646;2022-07-30T12:41:14;1.52;;;0.20;;
42140;SDS011;27809;51.864;5.646;2022-07-30T12:43:43;0.73;;;0.50;;
42140;SDS011;27809;51.864;5.646;2022-07-30T12:46:15;1.33;;;0.30;;
42140;SDS011;27809;51.864;5.646;2022-07-30T12:48:47;2.30;;;0.20;;
42140;SDS011;27809;51.864;5.646;2022-07-30T12:51:14;1.20;;;0.30;;
42140;SDS011;27809;51.864;5.646;2022-07-30T12:53:39;2.83;;;0.40;;
42140;SDS011;27809;51.864;5.646;2022-07-30T12:56:09;1.92;;;0.28;;
42140;SDS011;27809;51.864;5.646;2022-07-30T12:58:39;1.02;;;0.25;;
42140;SDS011;27809;51.864;5.646;2022-07-30T13:01:05;0.82;;;0.30;;
42140;SDS011;27809;51.864;5.646;2022-07-30T13:03:31;0.95;;;0.50;;
42140;SDS011;27809;51.864;5.646;2022-07-30T13:06:18;5.65;;;0.50;;
42140;SDS011;27809;51.864;5.646;2022-07-30T13:08:57;4.78;;;0.45;;
42140;SDS011;27809;51.864;5.646;2022-07-30T13:11:24;1.83;;;0.68;;
42140;SDS011;27809;51.864;5.646;2022-07-30T13:14:00;7.20;;;0.70;;
42140;SDS011;27809;51.864;5.646;2022-07-30T13:16:29;3.97;;;0.68;;
42140;SDS011;27809;51.864;5.646;2022-07-30T13:18:55;1.23;;;0.50;;
42140;SDS011;27809;51.864;5.646;2022-07-30T13:21:21;2.70;;;1.00;;
42140;SDS011;27809;51.864;5.646;2022-07-30T13:23:47;4.82;;;0.30;;
42140;SDS011;27809;51.864;5.646;2022-07-30T13:26:13;3.05;;;0.60;;
42140;SDS011;27809;51.864;5.646;2022-07-30T13:28:38;1.95;;;0.20;;
42140;SDS011;27809;51.864;5.646;2022-07-30T13:31:04;3.15;;;0.70;;
42140;SDS011;27809;51.864;5.646;2022-07-30T13:33:31;1.88;;;0.60;;
42140;SDS011;27809;51.864;5.646;2022-07-30T13:35:58;3.30;;;1.00;;
42140;SDS011;27809;51.864;5.646;2022-07-30T13:38:23;4.20;;;0.65;;
42140;SDS011;27809;51.864;5.646;2022-07-30T13:40:49;2.22;;;0.20;;
42140;SDS011;27809;51.864;5.646;2022-07-30T13:43:15;1.45;;;0.20;;
42140;SDS011;27809;51.864;5.646;2022-07-30T13:45:41;1.88;;;0.30;;
42140;SDS011;27809;51.864;5.646;2022-07-30T13:48:06;5.75;;;0.50;;
42140;SDS011;27809;51.864;5.646;2022-07-30T13:50:32;1.08;;;0.30;;
42140;SDS011;27809;51.864;5.646;2022-07-30T13:52:58;3.22;;;0.65;;
42140;SDS011;27809;51.864;5.646;2022-07-30T13:55:23;1.20;;;0.20;;
42140;SDS011;27809;51.864;5.646;2022-07-30T13:57:49;1.95;;;0.32;;
42140;SDS011;27809;51.864;5.646;2022-07-30T14:00:15;1.48;;;0.30;;
42140;SDS011;27809;51.864;5.646;2022-07-30T14:02:40;2.10;;;0.30;;
42140;SDS011;27809;51.864;5.646;2022-07-30T14:05:06;0.60;;;0.30;;
42140;SDS011;27809;51.864;5.646;2022-07-30T14:07:33;5.68;;;0.82;;
42140;SDS011;27809;51.864;5.646;2022-07-30T14:09:59;1.33;;;0.68;;
42140;SDS011;27809;51.864;5.646;2022-07-30T14:12:24;2.45;;;0.73;;
42140;SDS011;27809;51.864;5.646;2022-07-30T14:14:50;2.22;;;0.30;;
42140;SDS011;27809;51.864;5.646;2022-07-30T14:17:15;5.55;;;0.40;;
42140;SDS011;27809;51.864;5.646;2022-07-30T14:19:41;2.78;;;0.35;;
42140;SDS011;27809;51.864;5.646;2022-07-30T14:22:07;1.88;;;0.60;;
42140;SDS011;27809;51.864;5.646;2022-07-30T14:24:32;1.17;;;0.30;;
42140;SDS011;27809;51.864;5.646;2022-07-30T14:26:58;1.13;;;0.30;;
42140;SDS011;27809;51.864;5.646;2022-07-30T14:29:24;0.70;;;0.50;;
42140;SDS011;27809;51.864;5.646;2022-07-30T14:31:52;1.30;;;0.40;;
42140;SDS011;27809;51.864;5.646;2022-07-30T14:34:18;0.80;;;0.35;;
42140;SDS011;27809;51.864;5.646;2022-07-30T14:36:44;1.50;;;0.50;;
42140;SDS011;27809;51.864;5.646;2022-07-30T14:39:10;1.70;;;0.40;;
42140;SDS011;27809;51.864;5.646;2022-07-30T14:41:35;1.52;;;0.75;;
42140;SDS011;27809;51.864;5.646;2022-07-30T14:44:02;1.42;;;0.30;;
42140;SDS011;27809;51.864;5.646;2022-07-30T14:46:28;2.08;;;0.32;;
42140;SDS011;27809;51.864;5.646;2022-07-30T14:48:54;2.72;;;0.60;;
42140;SDS011;27809;51.864;5.646;2022-07-30T14:51:19;2.08;;;0.60;;
42140;SDS011;27809;51.864;5.646;2022-07-30T14:53:46;13.95;;;1.42;;
42140;SDS011;27809;51.864;5.646;2022-07-30T14:56:12;1.08;;;0.40;;
42140;SDS011;27809;51.864;5.646;2022-07-30T14:58:37;5.40;;;1.45;;
42140;SDS011;27809;51.864;5.646;2022-07-30T15:01:03;4.15;;;0.40;;
42140;SDS011;27809;51.864;5.646;2022-07-30T15:03:32;0.82;;;0.30;;
42140;SDS011;27809;51.864;5.646;2022-07-30T15:05:58;6.70;;;1.30;;
42140;SDS011;27809;51.864;5.646;2022-07-30T15:08:24;1.73;;;0.30;;
42140;SDS011;27809;51.864;5.646;2022-07-30T15:10:49;2.40;;;0.63;;
42140;SDS011;27809;51.864;5.646;2022-07-30T15:13:15;2.28;;;0.35;;
42140;SDS011;27809;51.864;5.646;2022-07-30T15:15:40;9.70;;;1.38;;